Home > Products > Valid Products > TAF

000
FTUS43 KJKL 302300 RRA
TAFJKL
TAF
KJKL 302343Z 0100/0124 VRB04KT P6SM SKC
     FM010600 00000KT 5SM BR SKC
     FM010800 00000KT 1 1/2SM BR FEW002
      TEMPO 0108/0112 3/4SM BR OVC002
     FM011200 00000KT 2SM BR SCT002
     FM011300 VRB02KT P6SM SKC=



000
FTUS43 KJKL 302300 RRA
TAFSME
TAF
KSME 302343Z 0100/0124 26004KT P6SM SKC
     FM010400 00000KT 3SM BR SKC
     FM010530 00000KT 1SM BR SKC
     FM010700 00000KT 1/4SM FG VV002
     FM011330 00000KT 2SM BR BKN002
     FM011430 VRB03KT P6SM SKC=



000
FTUS43 KJKL 302300 RRA
TAFLOZ
TAF
KLOZ 302343Z 0100/0124 VRB04KT P6SM SKC
     FM010500 00000KT 3SM BR SKC
     FM010900 00000KT 1SM BR VV002
     FM011230 00000KT 2SM BR BKN002
     FM011330 00000KT 5SM BR SCT002
     FM011400 VRB03KT P6SM SKC=



000
FTUS43 KJKL 301700
TAFSME
TAF
KSME 301720Z 3018/0118 26004KT P6SM SKC
     FM010400 00000KT 3SM BR SKC
     FM010530 00000KT 1SM BR SKC
     FM010700 00000KT 1/4SM FG VV002
     FM011330 00000KT 2SM BR BKN002
     FM011430 VRB03KT P6SM SKC=



000
FTUS43 KJKL 301700
TAFLOZ
TAF
KLOZ 301720Z 3018/0118 VRB04KT P6SM SKC
     FM010600 00000KT 3SM BR SKC
     FM010700 00000KT 1/4SM FG VV002
     FM011230 00000KT 2SM BR BKN002
     FM011330 00000KT 5SM BR SCT002
     FM011400 VRB03KT P6SM SKC=



000
FTUS43 KJKL 301700
TAFJKL
TAF
KJKL 301720Z 3018/0118 VRB04KT P6SM SKC
     FM010700 00000KT 5SM BR SKC
     FM010830 00000KT 1 1/2SM BR FEW002
     FM011000 00000KT 3/4SM BR OVC002
     FM011200 00000KT 2SM BR SCT002
     FM011300 VRB02KT P6SM SKC=



000
FTUS43 KJKL 301500 AAB
TAFSME
TAF AMD
KSME 301521Z 3015/0112 00000KT P6SM SCT003
     FM301600 00000KT P6SM SKC
     FM010500 00000KT 3SM BR SKC
     FM010700 00000KT 1/4SM FG VV002=



000
FTUS43 KJKL 301500 AAA
TAFSME
TAF AMD
KSME 301502Z 3015/0112 00000KT 3SM BR OVC001
     FM301600 00000KT P6SM SKC
     FM010500 00000KT 3SM BR SKC
     FM010700 00000KT 1/4SM FG VV002=



000
FTUS43 KJKL 301400 AAA
TAFLOZ
TAF AMD
KLOZ 301416Z 3014/0112 00000KT 1SM BR OVC002
     FM301500 VRB03KT P6SM SKC
     FM010500 00000KT 3SM BR SKC
     FM010700 00000KT 1/4SM FG VV002=



000
FTUS43 KJKL 301100
TAFLOZ
TAF
KLOZ 301125Z 3012/0112 00000KT 1/4SM FG VV001
     FM301330 00000KT 4SM BR FEW004 BKN008
     FM301500 VRB03KT P6SM SKC
     FM010500 00000KT 3SM BR SKC
     FM010700 00000KT 1/4SM FG VV002=



000
FTUS43 KJKL 301100
TAFSME
TAF
KSME 301125Z 3012/0112 00000KT 1/4SM FG VV001
     FM301330 00000KT 4SM BR BKN005
     FM301500 VRB03KT P6SM SKC
     FM010500 00000KT 3SM BR SKC
     FM010700 00000KT 1/4SM FG VV002=



000
FTUS43 KJKL 301100
TAFJKL
TAF
KJKL 301125Z 3012/0112 00000KT 2SM BR SCT002
     FM301300 VRB03KT P6SM SKC
     FM010800 00000KT 3SM BR SKC
     FM010930 00000KT 1 1/2SM BR FEW002
     FM011100 00000KT 1/2SM FG OVC002=



000
FTUS43 KJKL 301000 AAA
TAFJKL
TAF AMD
KJKL 301036Z 3011/0106 00000KT 3SM BR SKC
     FM301300 VRB03KT P6SM SKC=



000
FTUS43 KJKL 300600 AAA
TAFLOZ
TAF AMD
KLOZ 300629Z 3006/0106 00000KT 2SM BR BKN002
     FM300800 00000KT 1/4SM FG VV002
     FM301230 00000KT 4SM BR BKN002
     FM301400 VRB03KT P6SM SKC=



000
FTUS43 KJKL 300500 AAA
TAFSME
TAF AMD
KSME 300541Z 3006/0106 00000KT 1SM BR VV007
     FM300730 00000KT 1/4SM FG OVC002
     FM301300 00000KT 3SM BR BKN002
     FM301430 VRB03KT P6SM SKC=



000
FTUS43 KJKL 300500
TAFLOZ
TAF
KLOZ 300520Z 3006/0106 00000KT P6SM SKC
     FM300800 00000KT 4SM BR SCT002
     FM300930 00000KT 1/2SM FG VV002
     FM301230 00000KT 4SM BR BKN002
     FM301400 VRB03KT P6SM SKC=



000
FTUS43 KJKL 300500
TAFJKL
TAF
KJKL 300520Z 3006/0106 00000KT P6SM SKC
     FM300800 00000KT 5SM BR SKC
     FM300930 00000KT 2SM BR FEW002
     FM301030 00000KT 1/4SM FG OVC002
     FM301300 00000KT 5SM BR FEW002
     FM301400 VRB03KT P6SM SKC=



000
FTUS43 KJKL 300500
TAFSME
TAF
KSME 300520Z 3006/0106 00000KT 4SM BR FEW002
     FM300730 00000KT 1/4SM FG OVC002
     FM301300 00000KT 3SM BR BKN002
     FM301430 VRB03KT P6SM SKC=



000
FTUS43 KJKL 292300
TAFJKL
TAF
KJKL 292329Z 3000/3024 VRB03KT P6SM SKC
     FM300400 00000KT 4SM BR SKC
     FM300700 00000KT 2SM BR SCT002
     FM301030 00000KT 1/4SM FG OVC002
     FM301300 00000KT 5SM BR FEW002
     FM301400 VRB03KT P6SM SKC=



000
FTUS43 KJKL 292300
TAFSME
TAF
KSME 292329Z 3000/3024 VRB03KT P6SM SKC
     FM300400 00000KT 4SM BR SCT002
     FM300600 00000KT 1/2SM FG VV002
     FM301300 00000KT 3SM BR BKN002
     FM301430 VRB03KT P6SM SKC=



000
FTUS43 KJKL 292300
TAFLOZ
TAF
KLOZ 292329Z 3000/3024 VRB03KT P6SM SKC
     FM300400 00000KT 4SM BR SKC
     FM300700 00000KT 2SM BR SCT002
     FM300800 00000KT 1/2SM FG VV002
     FM301230 00000KT 4SM BR BKN002
     FM301400 VRB03KT P6SM SKC=



000
FTUS43 KJKL 291800 AAA
TAFJKL
TAF AMD
KJKL 291811Z 2918/3018 00000KT P6SM SCT027
     FM300800 00000KT 5SM BR SKC
     FM300900 00000KT 1SM BR SCT002
     FM301030 00000KT 1/4SM FG OVC002
     FM301300 00000KT 5SM BR FEW002
     FM301400 VRB03KT P6SM SKC=



000
FTUS43 KJKL 291700
TAFJKL
TAF
KJKL 291727Z 2918/3018 00000KT P6SM BKN026 BKN035
     FM300800 00000KT 5SM BR SKC
     FM300900 00000KT 1SM BR SCT002
     FM301030 00000KT 1/4SM FG OVC002
     FM301300 00000KT 5SM BR FEW002
     FM301400 VRB03KT P6SM SKC=



000
FTUS43 KJKL 291700
TAFSME
TAF
KSME 291727Z 2918/3018 00000KT P6SM SCT035 BKN045 BKN070
     FM300200 00000KT P6SM SKC
     FM300630 00000KT 3SM BR SCT002
     FM300900 00000KT 1/2SM FG VV002
     FM301300 00000KT 3SM BR BKN002
     FM301430 VRB03KT P6SM FEW002=



000
FTUS43 KJKL 291700
TAFLOZ
TAF
KLOZ 291727Z 2918/3018 00000KT P6SM FEW030 SCT045 BKN090
     FM300200 00000KT P6SM SKC
     FM300700 00000KT 2SM BR SCT002
     FM300830 00000KT 1/2SM FG VV002
     FM301230 00000KT 4SM BR BKN002
     FM301400 VRB03KT P6SM FEW002=



000
FTUS43 KJKL 291400 AAD
TAFSME
TAF AMD
KSME 291433Z 2915/3012 00000KT 5SM BR OVC003
     FM291500 VRB03KT P6SM FEW005
     FM291600 26004KT P6SM VCSH SCT035
     FM300200 00000KT P6SM SKC
     FM300700 00000KT 2SM BR SCT002
     FM300900 00000KT 1/2SM FG VV002=



000
FTUS43 KJKL 291400 AAB
TAFLOZ
TAF AMD
KLOZ 291409Z 2914/3012 15003KT 1/2SM FG BKN001 BKN070
     FM291430 20003KT 3SM BR SCT001 SCT070
     FM291500 25004KT P6SM FEW001 SCT035
     FM291600 26004KT P6SM VCSH SCT035
     FM300200 00000KT P6SM SKC
     FM300700 00000KT 2SM BR SCT002
     FM300900 00000KT 1/2SM FG VV002=



000
FTUS43 KJKL 291400 AAC
TAFSME
TAF AMD
KSME 291403Z 2914/3012 00000KT 2SM BR OVC001
     FM291430 VRB04KT 5SM BR SCT005
     FM291500 VRB04KT P6SM FEW005
     FM291600 26004KT P6SM VCSH SCT035
     FM300200 00000KT P6SM SKC
     FM300700 00000KT 2SM BR SCT002
     FM300900 00000KT 1/2SM FG VV002=



000
FTUS43 KJKL 291300 AAB
TAFSME
TAF AMD
KSME 291335Z 2914/3012 00000KT 1/4SM FG OVC001
     FM291400 00000KT 3SM BR SCT003
     FM291430 VRB04KT P6SM FEW005
     FM291600 26004KT P6SM VCSH SCT035
     FM300200 00000KT P6SM SKC
     FM300700 00000KT 2SM BR SCT002
     FM300900 00000KT 1/2SM FG VV002=



000
FTUS43 KJKL 291300 AAA
TAFSME
TAF AMD
KSME 291302Z 2913/3012 00000KT 1/4SM FG OVC001
     FM291330 00000KT 5SM BR SCT003
     FM291430 VRB04KT P6SM FEW005
     FM291600 26004KT P6SM VCSH SCT035
     FM300200 00000KT P6SM SKC
     FM300700 00000KT 2SM BR SCT002
     FM300900 00000KT 1/2SM FG VV002=



000
FTUS43 KJKL 291300 AAA
TAFLOZ
TAF AMD
KLOZ 291301Z 2913/3012 00000KT 5SM BR OVC001
     FM291330 VRB03KT P6SM FEW005 SCT050 SCT100
     FM291600 26004KT P6SM VCSH SCT035
     FM300200 00000KT P6SM SKC
     FM300700 00000KT 2SM BR SCT002
     FM300900 00000KT 1/2SM FG VV002=



000
FTUS43 KJKL 291200 AAA
TAFJKL
TAF AMD
KJKL 291256Z 2913/3012 00000KT 5SM BR FEW001 SCT035
     FM291330 VRB03KT P6SM SCT050 SCT100
     FM291600 26004KT P6SM VCSH SCT035
     FM300200 00000KT P6SM SKC
     FM300900 00000KT 1SM BR SCT002=



000
FTUS43 KJKL 291100
TAFLOZ
TAF
KLOZ 291126Z 2912/3012 00000KT 2SM BR SCT002 SCT050 SCT100
      TEMPO 2912/2913 1/4SM FG VV001
     FM291300 VRB03KT P6SM SCT050 SCT100
     FM291600 26004KT P6SM VCSH SCT035
     FM300200 00000KT P6SM SKC
     FM300700 00000KT 2SM BR SCT002
     FM300900 00000KT 1/2SM FG VV002=



000
FTUS43 KJKL 291100
TAFJKL
TAF
KJKL 291126Z 2912/3012 00000KT 3SM BR SCT003 SCT050 SCT100
      TEMPO 2912/2913 1/2SM FG VV001
     FM291300 VRB03KT P6SM SCT050 SCT100
     FM291600 26004KT P6SM VCSH SCT035
     FM300200 00000KT P6SM SKC
     FM300900 00000KT 1SM BR SCT002=



000
FTUS43 KJKL 291100
TAFSME
TAF
KSME 291126Z 2912/3012 00000KT 2SM BR SCT002 SCT050 SCT100
      TEMPO 2912/2913 1/4SM FG VV001
     FM291300 VRB03KT P6SM SCT050 SCT100
     FM291600 26004KT P6SM VCSH SCT035
     FM300200 00000KT P6SM SKC
     FM300700 00000KT 2SM BR SCT002
     FM300900 00000KT 1/2SM FG VV002=



000
FTUS43 KJKL 290800 AAB
TAFLOZ
TAF AMD
KLOZ 290849Z 2909/3006 00000KT 2SM BR SCT002 SCT100
      TEMPO 2909/2913 1/4SM FG VV001
     FM291300 00000KT 5SM BR SCT100
     FM291500 26004KT P6SM SCT035=



000
FTUS43 KJKL 290800 AAA
TAFJKL
TAF AMD
KJKL 290845Z 2909/3006 00000KT 3SM BR SCT003 SCT160
      TEMPO 2909/2913 1/2SM FG VV001
     FM291300 00000KT P6SM SCT035
     FM291500 26004KT P6SM SCT035=



000
FTUS43 KJKL 290700 AAA
TAFLOZ
TAF AMD
KLOZ 290742Z 2908/3006 00000KT 3SM BR SCT100
      TEMPO 2908/2911 1SM BR SCT001 SCT100
     FM291100 00000KT 1SM BR SCT001 SCT100
     FM291300 00000KT 5SM BR SCT100
     FM291500 26004KT P6SM SCT035=



000
FTUS43 KJKL 290500
TAFJKL
TAF
KJKL 290524Z 2906/3006 00000KT P6SM SCT160
     FM291000 00000KT 2SM BR SCT100
     FM291300 00000KT P6SM SCT035
     FM291500 26004KT P6SM SCT035=



000
FTUS43 KJKL 290500
TAFLOZ
TAF
KLOZ 290524Z 2906/3006 00000KT P6SM SCT035 SCT100 SCT160
     FM290900 00000KT 3SM BR SCT100
     FM291100 00000KT 1SM BR SCT100
     FM291300 00000KT 5SM BR SCT100
     FM291500 26004KT P6SM SCT035=



000
FTUS43 KJKL 290500
TAFSME
TAF
KSME 290524Z 2906/3006 00000KT 3SM BR SCT100 SCT160
     FM290800 00000KT 1SM BR SCT100
     FM291000 00000KT 1/2SM FG BKN003 BKN100
     FM291300 00000KT 2SM BR SCT100
     FM291500 27004KT P6SM SCT035=



000
FTUS43 KJKL 282300
TAFLOZ
TAF
KLOZ 282339Z 2900/2924 VRB03KT P6SM SCT035 BKN100=



000
FTUS43 KJKL 282300
TAFJKL
TAF
KJKL 282339Z 2900/2924 VRB03KT P6SM SCT035 BKN100=



000
FTUS43 KJKL 282300
TAFSME
TAF
KSME 282339Z 2900/2924 VRB03KT P6SM SCT035 BKN100=



000
FTUS43 KJKL 281700
TAFLOZ
TAF
KLOZ 281738Z 2818/2918 VRB03KT P6SM SCT030 BKN045 OVC100=



000
FTUS43 KJKL 281700
TAFSME
TAF
KSME 281738Z 2818/2918 VRB03KT P6SM SCT030 BKN040 OVC100=



000
FTUS43 KJKL 281700
TAFJKL
TAF
KJKL 281738Z 2818/2918 VRB03KT P6SM SCT030 BKN045 OVC100=



000
FTUS43 KJKL 281100
TAFSME
TAF
KSME 281136Z 2812/2912 00000KT P6SM SCT050 BKN150
     FM281500 24003KT P6SM SCT020 BKN035 BKN180
     FM282000 VRB03KT P6SM SCT030 BKN180=



000
FTUS43 KJKL 281100
TAFLOZ
TAF
KLOZ 281136Z 2812/2912 00000KT P6SM SCT050 BKN150
     FM281500 24003KT P6SM SCT025 BKN035 BKN180
     FM282000 VRB03KT P6SM SCT030 BKN180=



000
FTUS43 KJKL 281100
TAFJKL
TAF
KJKL 281136Z 2812/2912 00000KT P6SM BKN160
     FM281800 VRB03KT P6SM SCT030 BKN180=



000
FTUS43 KJKL 280900 AAA
TAFSME
TAF AMD
KSME 280901Z 2809/2906 00000KT P6SM BKN250
      TEMPO 2809/2812 3SM BR
     FM281200 00000KT P6SM SCT040 BKN150
     FM281500 24003KT P6SM VCSH SCT020 BKN035 BKN170
     FM282000 VRB03KT P6SM SCT030 BKN180=



000
FTUS43 KJKL 280500
TAFSME
TAF
KSME 280525Z 2806/2906 00000KT P6SM BKN250
     FM280900 00000KT 2SM BR BKN150
     FM281230 00000KT P6SM SCT040 BKN150
     FM281500 24003KT P6SM VCSH SCT020 BKN035 BKN170
     FM282000 VRB03KT P6SM SCT030 BKN180=



000
FTUS43 KJKL 280500
TAFLOZ
TAF
KLOZ 280525Z 2806/2906 00000KT P6SM BKN250
     FM281500 24003KT P6SM VCSH SCT020 BKN035 BKN180
     FM282000 VRB03KT P6SM SCT030 BKN180=



000
FTUS43 KJKL 280500
TAFJKL
TAF
KJKL 280525Z 2806/2906 00000KT P6SM FEW060 SCT250
     FM281500 VRB03KT P6SM SCT030 BKN180=



    US Dept of Commerce
    National Oceanic and Atmospheric Administration
    National Weather Service
    1325 East West Highway
    Silver Spring, MD 20910
    Page Author: NWS Internet Services Team
Disclaimer
Information Quality
Credits
Glossary
Privacy Policy
Freedom of Information Act (FOIA)
About Us
Career Opportunities